sensor_id;sensor_type;location;lat;lon;timestamp;P1;durP1;ratioP1;P2;durP2;ratioP2
62707;SDS011;48769;51.624;5.886;2023-09-19T00:02:16;18.52;;;4.15;;
62707;SDS011;48769;51.624;5.886;2023-09-19T00:04:42;12.00;;;2.97;;
62707;SDS011;48769;51.624;5.886;2023-09-19T00:07:08;24.58;;;4.00;;
62707;SDS011;48769;51.624;5.886;2023-09-19T00:09:34;21.02;;;4.45;;
62707;SDS011;48769;51.624;5.886;2023-09-19T00:12:03;18.98;;;3.97;;
62707;SDS011;48769;51.624;5.886;2023-09-19T00:14:34;19.38;;;3.80;;
62707;SDS011;48769;51.624;5.886;2023-09-19T00:17:00;21.80;;;3.85;;
62707;SDS011;48769;51.624;5.886;2023-09-19T00:19:30;18.02;;;4.30;;
62707;SDS011;48769;51.624;5.886;2023-09-19T00:21:57;17.60;;;4.45;;
62707;SDS011;48769;51.624;5.886;2023-09-19T00:24:23;21.33;;;4.18;;
62707;SDS011;48769;51.624;5.886;2023-09-19T00:26:48;17.55;;;3.92;;
62707;SDS011;48769;51.624;5.886;2023-09-19T00:29:13;19.60;;;4.03;;
62707;SDS011;48769;51.624;5.886;2023-09-19T00:31:43;14.38;;;3.55;;
62707;SDS011;48769;51.624;5.886;2023-09-19T00:34:08;15.05;;;3.38;;
62707;SDS011;48769;51.624;5.886;2023-09-19T00:36:36;17.15;;;3.97;;
62707;SDS011;48769;51.624;5.886;2023-09-19T00:39:03;18.92;;;3.65;;
62707;SDS011;48769;51.624;5.886;2023-09-19T00:41:30;23.08;;;4.00;;
62707;SDS011;48769;51.624;5.886;2023-09-19T00:43:56;20.05;;;3.63;;
62707;SDS011;48769;51.624;5.886;2023-09-19T00:46:21;19.55;;;4.32;;
62707;SDS011;48769;51.624;5.886;2023-09-19T00:48:47;17.77;;;4.05;;
62707;SDS011;48769;51.624;5.886;2023-09-19T00:51:13;23.17;;;3.67;;
62707;SDS011;48769;51.624;5.886;2023-09-19T00:53:39;21.70;;;3.85;;
62707;SDS011;48769;51.624;5.886;2023-09-19T00:56:07;25.58;;;3.75;;
62707;SDS011;48769;51.624;5.886;2023-09-19T00:58:32;13.70;;;3.00;;
62707;SDS011;48769;51.624;5.886;2023-09-19T01:01:00;20.50;;;4.65;;
62707;SDS011;48769;51.624;5.886;2023-09-19T01:03:26;20.73;;;3.42;;
62707;SDS011;48769;51.624;5.886;2023-09-19T01:05:52;15.65;;;4.10;;
62707;SDS011;48769;51.624;5.886;2023-09-19T01:08:18;18.90;;;4.78;;
62707;SDS011;48769;51.624;5.886;2023-09-19T01:10:50;22.20;;;3.67;;
62707;SDS011;48769;51.624;5.886;2023-09-19T01:13:26;15.32;;;3.22;;
62707;SDS011;48769;51.624;5.886;2023-09-19T01:19:07;20.33;;;3.53;;
62707;SDS011;48769;51.624;5.886;2023-09-19T01:21:49;16.40;;;3.30;;
62707;SDS011;48769;51.624;5.886;2023-09-19T01:24:34;16.08;;;3.75;;
62707;SDS011;48769;51.624;5.886;2023-09-19T01:27:17;16.60;;;3.40;;
62707;SDS011;48769;51.624;5.886;2023-09-19T01:30:14;16.95;;;3.95;;
62707;SDS011;48769;51.624;5.886;2023-09-19T01:32:43;18.92;;;3.70;;
62707;SDS011;48769;51.624;5.886;2023-09-19T01:35:09;15.20;;;3.17;;
62707;SDS011;48769;51.624;5.886;2023-09-19T01:37:37;18.58;;;3.25;;
62707;SDS011;48769;51.624;5.886;2023-09-19T01:40:04;14.07;;;3.10;;
62707;SDS011;48769;51.624;5.886;2023-09-19T01:42:57;23.77;;;4.30;;
62707;SDS011;48769;51.624;5.886;2023-09-19T01:45:35;19.33;;;3.40;;
62707;SDS011;48769;51.624;5.886;2023-09-19T01:50:59;22.77;;;3.83;;
62707;SDS011;48769;51.624;5.886;2023-09-19T01:53:35;13.75;;;3.38;;
62707;SDS011;48769;51.624;5.886;2023-09-19T01:56:05;19.85;;;3.80;;
62707;SDS011;48769;51.624;5.886;2023-09-19T01:58:38;17.33;;;2.97;;
62707;SDS011;48769;51.624;5.886;2023-09-19T02:01:08;18.83;;;3.30;;
62707;SDS011;48769;51.624;5.886;2023-09-19T02:03:38;18.13;;;3.63;;
62707;SDS011;48769;51.624;5.886;2023-09-19T02:06:05;16.73;;;3.95;;
62707;SDS011;48769;51.624;5.886;2023-09-19T02:08:36;12.80;;;3.30;;
62707;SDS011;48769;51.624;5.886;2023-09-19T02:11:01;16.73;;;4.18;;
62707;SDS011;48769;51.624;5.886;2023-09-19T02:13:27;17.15;;;3.58;;
62707;SDS011;48769;51.624;5.886;2023-09-19T02:15:53;19.95;;;3.63;;
62707;SDS011;48769;51.624;5.886;2023-09-19T02:18:18;19.63;;;3.42;;
62707;SDS011;48769;51.624;5.886;2023-09-19T02:20:44;14.45;;;3.58;;
62707;SDS011;48769;51.624;5.886;2023-09-19T02:23:10;16.75;;;2.95;;
62707;SDS011;48769;51.624;5.886;2023-09-19T02:25:37;18.45;;;3.30;;
62707;SDS011;48769;51.624;5.886;2023-09-19T02:28:05;18.20;;;3.72;;
62707;SDS011;48769;51.624;5.886;2023-09-19T02:30:31;16.13;;;3.00;;
62707;SDS011;48769;51.624;5.886;2023-09-19T02:32:56;10.13;;;3.15;;
62707;SDS011;48769;51.624;5.886;2023-09-19T02:35:21;12.43;;;3.42;;
62707;SDS011;48769;51.624;5.886;2023-09-19T02:37:47;11.88;;;3.03;;
62707;SDS011;48769;51.624;5.886;2023-09-19T02:40:13;16.10;;;3.97;;
62707;SDS011;48769;51.624;5.886;2023-09-19T02:42:48;11.98;;;3.38;;
62707;SDS011;48769;51.624;5.886;2023-09-19T02:45:17;17.40;;;3.78;;
62707;SDS011;48769;51.624;5.886;2023-09-19T02:47:44;22.80;;;4.35;;
62707;SDS011;48769;51.624;5.886;2023-09-19T02:50:09;15.23;;;3.40;;
62707;SDS011;48769;51.624;5.886;2023-09-19T02:52:44;18.60;;;3.38;;
62707;SDS011;48769;51.624;5.886;2023-09-19T02:55:12;14.10;;;3.47;;
62707;SDS011;48769;51.624;5.886;2023-09-19T02:57:44;25.00;;;3.90;;
62707;SDS011;48769;51.624;5.886;2023-09-19T03:00:11;17.33;;;3.67;;
62707;SDS011;48769;51.624;5.886;2023-09-19T03:02:38;19.35;;;3.50;;
62707;SDS011;48769;51.624;5.886;2023-09-19T03:05:05;17.33;;;4.00;;
62707;SDS011;48769;51.624;5.886;2023-09-19T03:07:31;17.65;;;3.35;;
62707;SDS011;48769;51.624;5.886;2023-09-19T03:09:56;13.13;;;3.30;;
62707;SDS011;48769;51.624;5.886;2023-09-19T03:12:21;17.20;;;3.70;;
62707;SDS011;48769;51.624;5.886;2023-09-19T03:14:47;29.88;;;4.13;;
62707;SDS011;48769;51.624;5.886;2023-09-19T03:17:13;11.77;;;3.65;;
62707;SDS011;48769;51.624;5.886;2023-09-19T03:19:39;14.60;;;3.47;;
62707;SDS011;48769;51.624;5.886;2023-09-19T03:22:05;14.13;;;3.30;;
62707;SDS011;48769;51.624;5.886;2023-09-19T03:24:30;14.38;;;2.92;;
62707;SDS011;48769;51.624;5.886;2023-09-19T03:26:56;15.23;;;3.15;;
62707;SDS011;48769;51.624;5.886;2023-09-19T03:29:22;20.15;;;4.18;;
62707;SDS011;48769;51.624;5.886;2023-09-19T03:31:48;12.48;;;3.88;;
62707;SDS011;48769;51.624;5.886;2023-09-19T03:34:13;12.32;;;2.80;;
62707;SDS011;48769;51.624;5.886;2023-09-19T03:36:39;15.77;;;2.90;;
62707;SDS011;48769;51.624;5.886;2023-09-19T03:39:09;21.85;;;3.75;;
62707;SDS011;48769;51.624;5.886;2023-09-19T03:41:35;12.10;;;2.75;;
62707;SDS011;48769;51.624;5.886;2023-09-19T03:44:01;15.90;;;3.00;;
62707;SDS011;48769;51.624;5.886;2023-09-19T03:46:27;14.35;;;2.95;;
62707;SDS011;48769;51.624;5.886;2023-09-19T03:48:52;9.82;;;3.05;;
62707;SDS011;48769;51.624;5.886;2023-09-19T03:51:19;14.93;;;3.10;;
62707;SDS011;48769;51.624;5.886;2023-09-19T03:53:44;9.35;;;2.60;;
62707;SDS011;48769;51.624;5.886;2023-09-19T03:56:10;17.33;;;3.85;;
62707;SDS011;48769;51.624;5.886;2023-09-19T03:58:35;9.45;;;2.80;;
62707;SDS011;48769;51.624;5.886;2023-09-19T04:01:04;17.65;;;3.35;;
62707;SDS011;48769;51.624;5.886;2023-09-19T04:03:29;21.27;;;3.55;;
62707;SDS011;48769;51.624;5.886;2023-09-19T04:06:00;15.40;;;4.00;;
62707;SDS011;48769;51.624;5.886;2023-09-19T04:08:26;15.43;;;3.30;;
62707;SDS011;48769;51.624;5.886;2023-09-19T04:10:52;10.13;;;2.90;;
62707;SDS011;48769;51.624;5.886;2023-09-19T04:13:18;13.55;;;2.90;;
62707;SDS011;48769;51.624;5.886;2023-09-19T04:15:43;14.18;;;3.65;;
62707;SDS011;48769;51.624;5.886;2023-09-19T04:18:09;14.68;;;2.63;;
62707;SDS011;48769;51.624;5.886;2023-09-19T04:20:34;9.40;;;2.60;;
62707;SDS011;48769;51.624;5.886;2023-09-19T04:22:59;12.95;;;3.45;;
62707;SDS011;48769;51.624;5.886;2023-09-19T04:25:25;12.88;;;2.72;;
62707;SDS011;48769;51.624;5.886;2023-09-19T04:27:51;8.68;;;2.63;;
62707;SDS011;48769;51.624;5.886;2023-09-19T04:30:20;12.88;;;3.05;;
62707;SDS011;48769;51.624;5.886;2023-09-19T04:32:46;13.57;;;3.88;;
62707;SDS011;48769;51.624;5.886;2023-09-19T04:35:15;11.48;;;3.13;;
62707;SDS011;48769;51.624;5.886;2023-09-19T04:37:40;15.00;;;2.95;;
62707;SDS011;48769;51.624;5.886;2023-09-19T04:40:09;12.98;;;2.63;;
62707;SDS011;48769;51.624;5.886;2023-09-19T04:42:38;20.40;;;3.65;;
62707;SDS011;48769;51.624;5.886;2023-09-19T04:45:04;20.88;;;3.65;;
62707;SDS011;48769;51.624;5.886;2023-09-19T04:47:30;13.63;;;2.83;;
62707;SDS011;48769;51.624;5.886;2023-09-19T04:49:55;14.77;;;3.42;;
62707;SDS011;48769;51.624;5.886;2023-09-19T04:52:21;13.40;;;2.90;;
62707;SDS011;48769;51.624;5.886;2023-09-19T04:54:47;14.13;;;3.25;;
62707;SDS011;48769;51.624;5.886;2023-09-19T04:57:13;14.70;;;3.05;;
62707;SDS011;48769;51.624;5.886;2023-09-19T04:59:38;15.00;;;3.05;;
62707;SDS011;48769;51.624;5.886;2023-09-19T05:02:06;14.88;;;3.13;;
62707;SDS011;48769;51.624;5.886;2023-09-19T05:04:33;15.25;;;3.35;;
62707;SDS011;48769;51.624;5.886;2023-09-19T05:06:58;16.05;;;4.25;;
62707;SDS011;48769;51.624;5.886;2023-09-19T05:09:23;17.10;;;3.90;;
62707;SDS011;48769;51.624;5.886;2023-09-19T05:11:49;16.98;;;3.10;;
62707;SDS011;48769;51.624;5.886;2023-09-19T05:14:16;15.23;;;2.92;;
62707;SDS011;48769;51.624;5.886;2023-09-19T05:16:41;14.38;;;3.75;;
62707;SDS011;48769;51.624;5.886;2023-09-19T05:19:07;15.73;;;3.30;;
62707;SDS011;48769;51.624;5.886;2023-09-19T05:21:37;16.02;;;2.83;;
62707;SDS011;48769;51.624;5.886;2023-09-19T05:24:04;19.95;;;3.78;;
62707;SDS011;48769;51.624;5.886;2023-09-19T05:26:32;19.88;;;3.70;;
62707;SDS011;48769;51.624;5.886;2023-09-19T05:28:58;15.52;;;3.40;;
62707;SDS011;48769;51.624;5.886;2023-09-19T05:31:23;15.85;;;3.60;;
62707;SDS011;48769;51.624;5.886;2023-09-19T05:33:49;18.27;;;3.25;;
62707;SDS011;48769;51.624;5.886;2023-09-19T05:36:15;16.13;;;3.20;;
62707;SDS011;48769;51.624;5.886;2023-09-19T05:38:41;14.80;;;3.63;;
62707;SDS011;48769;51.624;5.886;2023-09-19T05:41:08;16.23;;;3.58;;
62707;SDS011;48769;51.624;5.886;2023-09-19T05:43:36;11.98;;;2.78;;
62707;SDS011;48769;51.624;5.886;2023-09-19T05:46:02;12.68;;;2.88;;
62707;SDS011;48769;51.624;5.886;2023-09-19T05:48:28;13.02;;;3.35;;
62707;SDS011;48769;51.624;5.886;2023-09-19T05:50:54;19.92;;;3.88;;
62707;SDS011;48769;51.624;5.886;2023-09-19T05:53:19;19.52;;;3.72;;
62707;SDS011;48769;51.624;5.886;2023-09-19T05:55:44;13.00;;;3.20;;
62707;SDS011;48769;51.624;5.886;2023-09-19T05:58:10;18.50;;;3.65;;
62707;SDS011;48769;51.624;5.886;2023-09-19T06:00:38;17.83;;;4.07;;
62707;SDS011;48769;51.624;5.886;2023-09-19T06:03:06;18.00;;;3.72;;
62707;SDS011;48769;51.624;5.886;2023-09-19T06:05:32;14.40;;;3.78;;
62707;SDS011;48769;51.624;5.886;2023-09-19T06:07:57;16.33;;;3.30;;
62707;SDS011;48769;51.624;5.886;2023-09-19T06:10:31;16.23;;;3.60;;
62707;SDS011;48769;51.624;5.886;2023-09-19T06:12:57;13.55;;;3.42;;
62707;SDS011;48769;51.624;5.886;2023-09-19T06:15:23;13.60;;;3.47;;
62707;SDS011;48769;51.624;5.886;2023-09-19T06:17:51;14.02;;;3.17;;
62707;SDS011;48769;51.624;5.886;2023-09-19T06:20:21;14.23;;;3.50;;
62707;SDS011;48769;51.624;5.886;2023-09-19T06:22:48;12.80;;;2.60;;
62707;SDS011;48769;51.624;5.886;2023-09-19T06:25:14;17.08;;;3.17;;
62707;SDS011;48769;51.624;5.886;2023-09-19T06:27:44;18.55;;;4.18;;
62707;SDS011;48769;51.624;5.886;2023-09-19T06:30:13;10.48;;;3.15;;
62707;SDS011;48769;51.624;5.886;2023-09-19T06:32:39;13.80;;;3.47;;
62707;SDS011;48769;51.624;5.886;2023-09-19T06:35:05;13.00;;;3.17;;
62707;SDS011;48769;51.624;5.886;2023-09-19T06:37:36;12.95;;;3.13;;
62707;SDS011;48769;51.624;5.886;2023-09-19T06:40:03;17.20;;;3.30;;
62707;SDS011;48769;51.624;5.886;2023-09-19T06:42:40;18.48;;;4.13;;
62707;SDS011;48769;51.624;5.886;2023-09-19T06:45:06;17.40;;;3.72;;
62707;SDS011;48769;51.624;5.886;2023-09-19T06:47:32;15.68;;;3.53;;
62707;SDS011;48769;51.624;5.886;2023-09-19T06:49:57;15.82;;;3.58;;
62707;SDS011;48769;51.624;5.886;2023-09-19T06:52:23;15.48;;;3.90;;
62707;SDS011;48769;51.624;5.886;2023-09-19T06:54:48;12.30;;;3.42;;
62707;SDS011;48769;51.624;5.886;2023-09-19T06:57:15;20.48;;;3.80;;
62707;SDS011;48769;51.624;5.886;2023-09-19T06:59:41;21.80;;;3.90;;
62707;SDS011;48769;51.624;5.886;2023-09-19T07:02:06;19.15;;;3.83;;
62707;SDS011;48769;51.624;5.886;2023-09-19T07:04:33;19.88;;;4.15;;
62707;SDS011;48769;51.624;5.886;2023-09-19T07:06:58;22.75;;;3.78;;
62707;SDS011;48769;51.624;5.886;2023-09-19T07:09:24;17.40;;;3.78;;
62707;SDS011;48769;51.624;5.886;2023-09-19T07:11:52;18.50;;;3.67;;
62707;SDS011;48769;51.624;5.886;2023-09-19T07:14:18;24.20;;;4.32;;
62707;SDS011;48769;51.624;5.886;2023-09-19T07:16:43;18.50;;;4.22;;
62707;SDS011;48769;51.624;5.886;2023-09-19T07:19:09;14.38;;;3.25;;
62707;SDS011;48769;51.624;5.886;2023-09-19T07:21:35;21.42;;;3.47;;
62707;SDS011;48769;51.624;5.886;2023-09-19T07:24:01;18.88;;;4.18;;
62707;SDS011;48769;51.624;5.886;2023-09-19T07:26:29;16.27;;;4.05;;
62707;SDS011;48769;51.624;5.886;2023-09-19T07:28:56;19.33;;;3.58;;
62707;SDS011;48769;51.624;5.886;2023-09-19T07:31:22;17.00;;;3.78;;
62707;SDS011;48769;51.624;5.886;2023-09-19T07:33:47;17.77;;;3.10;;
62707;SDS011;48769;51.624;5.886;2023-09-19T07:36:13;17.85;;;3.92;;
62707;SDS011;48769;51.624;5.886;2023-09-19T07:38:39;14.68;;;3.45;;
62707;SDS011;48769;51.624;5.886;2023-09-19T07:41:05;21.05;;;3.65;;
62707;SDS011;48769;51.624;5.886;2023-09-19T07:43:31;17.85;;;4.28;;
62707;SDS011;48769;51.624;5.886;2023-09-19T07:45:57;16.58;;;3.28;;
62707;SDS011;48769;51.624;5.886;2023-09-19T07:48:25;22.23;;;3.60;;
62707;SDS011;48769;51.624;5.886;2023-09-19T07:50:51;15.68;;;3.50;;
62707;SDS011;48769;51.624;5.886;2023-09-19T07:53:16;19.20;;;3.58;;
62707;SDS011;48769;51.624;5.886;2023-09-19T07:55:42;15.95;;;4.20;;
62707;SDS011;48769;51.624;5.886;2023-09-19T07:58:13;15.82;;;3.88;;
62707;SDS011;48769;51.624;5.886;2023-09-19T08:00:38;14.48;;;3.65;;
62707;SDS011;48769;51.624;5.886;2023-09-19T08:03:04;10.45;;;3.05;;
62707;SDS011;48769;51.624;5.886;2023-09-19T08:05:29;23.73;;;3.97;;
62707;SDS011;48769;51.624;5.886;2023-09-19T08:07:54;19.60;;;3.50;;
62707;SDS011;48769;51.624;5.886;2023-09-19T08:10:21;19.90;;;3.83;;
62707;SDS011;48769;51.624;5.886;2023-09-19T08:12:47;17.70;;;3.33;;
62707;SDS011;48769;51.624;5.886;2023-09-19T08:15:17;16.25;;;3.47;;
62707;SDS011;48769;51.624;5.886;2023-09-19T08:17:44;17.65;;;3.40;;
62707;SDS011;48769;51.624;5.886;2023-09-19T08:20:10;14.55;;;3.10;;
62707;SDS011;48769;51.624;5.886;2023-09-19T08:22:50;16.38;;;3.10;;
62707;SDS011;48769;51.624;5.886;2023-09-19T08:25:18;14.73;;;3.72;;
62707;SDS011;48769;51.624;5.886;2023-09-19T08:27:44;17.50;;;3.55;;
62707;SDS011;48769;51.624;5.886;2023-09-19T08:30:13;13.48;;;3.35;;
62707;SDS011;48769;51.624;5.886;2023-09-19T08:32:40;16.60;;;3.13;;
62707;SDS011;48769;51.624;5.886;2023-09-19T08:35:07;16.17;;;3.45;;
62707;SDS011;48769;51.624;5.886;2023-09-19T08:37:34;18.58;;;3.95;;
62707;SDS011;48769;51.624;5.886;2023-09-19T08:39:59;15.88;;;3.33;;
62707;SDS011;48769;51.624;5.886;2023-09-19T08:42:24;18.00;;;3.30;;
62707;SDS011;48769;51.624;5.886;2023-09-19T08:44:50;21.10;;;4.30;;
62707;SDS011;48769;51.624;5.886;2023-09-19T08:47:16;12.30;;;3.10;;
62707;SDS011;48769;51.624;5.886;2023-09-19T08:49:57;16.60;;;3.50;;
62707;SDS011;48769;51.624;5.886;2023-09-19T08:52:41;21.35;;;3.42;;
62707;SDS011;48769;51.624;5.886;2023-09-19T08:55:07;15.73;;;2.95;;
62707;SDS011;48769;51.624;5.886;2023-09-19T08:57:37;19.73;;;3.95;;
62707;SDS011;48769;51.624;5.886;2023-09-19T09:00:06;15.82;;;3.30;;
62707;SDS011;48769;51.624;5.886;2023-09-19T09:02:37;15.55;;;3.70;;
62707;SDS011;48769;51.624;5.886;2023-09-19T09:05:05;19.15;;;3.20;;
62707;SDS011;48769;51.624;5.886;2023-09-19T09:07:34;15.70;;;3.30;;
62707;SDS011;48769;51.624;5.886;2023-09-19T09:10:02;19.63;;;4.03;;
62707;SDS011;48769;51.624;5.886;2023-09-19T09:12:28;22.88;;;3.55;;
62707;SDS011;48769;51.624;5.886;2023-09-19T09:14:54;15.10;;;3.25;;
62707;SDS011;48769;51.624;5.886;2023-09-19T09:17:21;14.55;;;3.67;;
62707;SDS011;48769;51.624;5.886;2023-09-19T09:19:47;16.83;;;3.60;;
62707;SDS011;48769;51.624;5.886;2023-09-19T09:22:12;13.70;;;3.97;;
62707;SDS011;48769;51.624;5.886;2023-09-19T09:24:50;20.15;;;3.70;;
62707;SDS011;48769;51.624;5.886;2023-09-19T09:27:18;21.88;;;4.13;;
62707;SDS011;48769;51.624;5.886;2023-09-19T09:29:45;17.17;;;3.30;;
62707;SDS011;48769;51.624;5.886;2023-09-19T09:35:08;16.55;;;4.00;;
62707;SDS011;48769;51.624;5.886;2023-09-19T09:37:39;16.60;;;3.40;;
62707;SDS011;48769;51.624;5.886;2023-09-19T09:40:08;13.38;;;2.95;;
62707;SDS011;48769;51.624;5.886;2023-09-19T09:42:39;15.55;;;4.03;;
62707;SDS011;48769;51.624;5.886;2023-09-19T09:47:48;15.35;;;3.33;;
62707;SDS011;48769;51.624;5.886;2023-09-19T09:50:30;17.08;;;3.85;;
62707;SDS011;48769;51.624;5.886;2023-09-19T09:53:22;13.15;;;3.38;;
62707;SDS011;48769;51.624;5.886;2023-09-19T09:58:31;16.50;;;3.88;;
62707;SDS011;48769;51.624;5.886;2023-09-19T10:00:57;16.52;;;4.07;;
62707;SDS011;48769;51.624;5.886;2023-09-19T10:03:37;18.65;;;4.28;;
62707;SDS011;48769;51.624;5.886;2023-09-19T10:06:13;20.20;;;4.05;;
62707;SDS011;48769;51.624;5.886;2023-09-19T10:09:06;20.13;;;4.03;;
62707;SDS011;48769;51.624;5.886;2023-09-19T10:12:05;19.05;;;3.50;;
62707;SDS011;48769;51.624;5.886;2023-09-19T10:14:34;20.50;;;4.22;;
62707;SDS011;48769;51.624;5.886;2023-09-19T10:17:03;21.88;;;3.65;;
62707;SDS011;48769;51.624;5.886;2023-09-19T10:19:35;14.75;;;3.38;;
62707;SDS011;48769;51.624;5.886;2023-09-19T10:22:02;16.27;;;3.35;;
62707;SDS011;48769;51.624;5.886;2023-09-19T10:24:30;16.90;;;3.38;;
62707;SDS011;48769;51.624;5.886;2023-09-19T10:26:59;18.67;;;3.17;;
62707;SDS011;48769;51.624;5.886;2023-09-19T10:29:25;15.20;;;2.97;;
62707;SDS011;48769;51.624;5.886;2023-09-19T10:31:54;14.38;;;3.10;;
62707;SDS011;48769;51.624;5.886;2023-09-19T10:34:23;12.32;;;3.35;;
62707;SDS011;48769;51.624;5.886;2023-09-19T10:36:51;16.40;;;3.50;;
62707;SDS011;48769;51.624;5.886;2023-09-19T10:39:17;13.32;;;3.30;;
62707;SDS011;48769;51.624;5.886;2023-09-19T10:41:44;15.40;;;3.88;;
62707;SDS011;48769;51.624;5.886;2023-09-19T10:44:19;14.07;;;2.80;;
62707;SDS011;48769;51.624;5.886;2023-09-19T10:46:47;19.40;;;3.05;;
62707;SDS011;48769;51.624;5.886;2023-09-19T10:49:13;14.43;;;2.95;;
62707;SDS011;48769;51.624;5.886;2023-09-19T10:51:39;17.35;;;3.28;;
62707;SDS011;48769;51.624;5.886;2023-09-19T10:54:11;7.93;;;2.38;;
62707;SDS011;48769;51.624;5.886;2023-09-19T10:56:38;11.32;;;2.80;;
62707;SDS011;48769;51.624;5.886;2023-09-19T11:04:27;12.70;;;2.70;;
62707;SDS011;48769;51.624;5.886;2023-09-19T11:07:07;18.17;;;3.97;;
62707;SDS011;48769;51.624;5.886;2023-09-19T11:09:43;8.70;;;2.20;;
62707;SDS011;48769;51.624;5.886;2023-09-19T11:12:24;11.60;;;3.25;;
62707;SDS011;48769;51.624;5.886;2023-09-19T11:15:00;12.95;;;2.67;;
62707;SDS011;48769;51.624;5.886;2023-09-19T11:33:26;13.27;;;2.72;;
62707;SDS011;48769;51.624;5.886;2023-09-19T11:35:58;12.55;;;3.25;;
62707;SDS011;48769;51.624;5.886;2023-09-19T11:46:34;8.23;;;1.77;;
62707;SDS011;48769;51.624;5.886;2023-09-19T11:49:16;9.93;;;2.83;;
62707;SDS011;48769;51.624;5.886;2023-09-19T11:51:48;10.57;;;2.67;;
62707;SDS011;48769;51.624;5.886;2023-09-19T11:54:16;10.07;;;2.25;;
62707;SDS011;48769;51.624;5.886;2023-09-19T11:56:53;9.75;;;2.50;;
62707;SDS011;48769;51.624;5.886;2023-09-19T11:59:22;10.63;;;2.42;;
62707;SDS011;48769;51.624;5.886;2023-09-19T12:01:53;11.32;;;2.45;;
62707;SDS011;48769;51.624;5.886;2023-09-19T12:04:35;12.63;;;2.75;;
62707;SDS011;48769;51.624;5.886;2023-09-19T12:07:06;8.85;;;2.08;;
62707;SDS011;48769;51.624;5.886;2023-09-19T12:09:39;7.75;;;1.85;;
62707;SDS011;48769;51.624;5.886;2023-09-19T12:12:08;11.85;;;2.45;;
62707;SDS011;48769;51.624;5.886;2023-09-19T12:14:47;10.65;;;2.13;;
62707;SDS011;48769;51.624;5.886;2023-09-19T12:17:14;8.98;;;2.38;;
62707;SDS011;48769;51.624;5.886;2023-09-19T12:19:49;6.45;;;1.58;;
62707;SDS011;48769;51.624;5.886;2023-09-19T12:22:18;13.32;;;2.20;;
62707;SDS011;48769;51.624;5.886;2023-09-19T12:24:45;9.30;;;2.10;;
62707;SDS011;48769;51.624;5.886;2023-09-19T12:27:11;7.88;;;1.58;;
62707;SDS011;48769;51.624;5.886;2023-09-19T12:29:44;10.60;;;1.92;;
62707;SDS011;48769;51.624;5.886;2023-09-19T12:32:11;9.27;;;1.88;;
62707;SDS011;48769;51.624;5.886;2023-09-19T12:34:36;6.80;;;2.47;;
62707;SDS011;48769;51.624;5.886;2023-09-19T12:37:08;11.02;;;1.38;;
62707;SDS011;48769;51.624;5.886;2023-09-19T12:42:10;7.47;;;1.55;;
62707;SDS011;48769;51.624;5.886;2023-09-19T12:44:40;10.00;;;2.20;;
62707;SDS011;48769;51.624;5.886;2023-09-19T12:47:09;6.85;;;1.40;;
62707;SDS011;48769;51.624;5.886;2023-09-19T12:52:47;9.43;;;1.80;;
62707;SDS011;48769;51.624;5.886;2023-09-19T12:55:26;6.07;;;1.52;;
62707;SDS011;48769;51.624;5.886;2023-09-19T13:00:39;5.28;;;1.30;;
62707;SDS011;48769;51.624;5.886;2023-09-19T13:03:19;6.80;;;1.70;;
62707;SDS011;48769;51.624;5.886;2023-09-19T13:05:52;5.78;;;1.45;;
62707;SDS011;48769;51.624;5.886;2023-09-19T13:08:23;6.53;;;1.50;;
62707;SDS011;48769;51.624;5.886;2023-09-19T13:11:04;7.82;;;1.70;;
62707;SDS011;48769;51.624;5.886;2023-09-19T13:13:49;4.28;;;1.23;;
62707;SDS011;48769;51.624;5.886;2023-09-19T13:16:52;5.60;;;1.50;;
62707;SDS011;48769;51.624;5.886;2023-09-19T13:19:34;7.20;;;1.90;;
62707;SDS011;48769;51.624;5.886;2023-09-19T13:22:04;5.70;;;1.55;;
62707;SDS011;48769;51.624;5.886;2023-09-19T13:24:30;8.82;;;1.48;;
62707;SDS011;48769;51.624;5.886;2023-09-19T13:26:58;5.95;;;1.10;;
62707;SDS011;48769;51.624;5.886;2023-09-19T13:29:25;6.80;;;1.17;;
62707;SDS011;48769;51.624;5.886;2023-09-19T13:31:51;4.85;;;1.30;;
62707;SDS011;48769;51.624;5.886;2023-09-19T13:34:20;4.22;;;0.98;;
62707;SDS011;48769;51.624;5.886;2023-09-19T13:36:46;3.45;;;1.08;;
62707;SDS011;48769;51.624;5.886;2023-09-19T13:39:15;5.75;;;1.30;;
62707;SDS011;48769;51.624;5.886;2023-09-19T13:41:41;2.50;;;1.05;;
62707;SDS011;48769;51.624;5.886;2023-09-19T13:44:08;5.00;;;1.30;;
62707;SDS011;48769;51.624;5.886;2023-09-19T13:46:35;6.30;;;1.30;;
62707;SDS011;48769;51.624;5.886;2023-09-19T13:49:01;7.72;;;1.50;;
62707;SDS011;48769;51.624;5.886;2023-09-19T13:51:28;5.43;;;1.52;;
62707;SDS011;48769;51.624;5.886;2023-09-19T13:53:55;6.22;;;1.42;;
62707;SDS011;48769;51.624;5.886;2023-09-19T13:56:20;3.28;;;1.10;;
62707;SDS011;48769;51.624;5.886;2023-09-19T13:58:46;6.00;;;1.20;;
62707;SDS011;48769;51.624;5.886;2023-09-19T14:01:11;6.57;;;1.35;;
62707;SDS011;48769;51.624;5.886;2023-09-19T14:03:38;3.08;;;1.05;;
62707;SDS011;48769;51.624;5.886;2023-09-19T14:06:11;5.05;;;1.23;;
62707;SDS011;48769;51.624;5.886;2023-09-19T14:08:37;6.75;;;1.20;;
62707;SDS011;48769;51.624;5.886;2023-09-19T14:11:06;5.10;;;1.20;;
62707;SDS011;48769;51.624;5.886;2023-09-19T14:13:32;5.70;;;1.70;;
62707;SDS011;48769;51.624;5.886;2023-09-19T14:16:02;10.45;;;1.77;;
62707;SDS011;48769;51.624;5.886;2023-09-19T14:18:31;5.60;;;1.20;;
62707;SDS011;48769;51.624;5.886;2023-09-19T14:20:57;3.47;;;1.13;;
62707;SDS011;48769;51.624;5.886;2023-09-19T14:23:22;4.40;;;1.42;;
62707;SDS011;48769;51.624;5.886;2023-09-19T14:25:48;4.85;;;0.88;;
62707;SDS011;48769;51.624;5.886;2023-09-19T14:28:14;4.22;;;1.30;;
62707;SDS011;48769;51.624;5.886;2023-09-19T14:30:39;13.07;;;1.63;;
62707;SDS011;48769;51.624;5.886;2023-09-19T14:33:04;6.13;;;1.10;;
62707;SDS011;48769;51.624;5.886;2023-09-19T14:35:31;5.55;;;1.50;;
62707;SDS011;48769;51.624;5.886;2023-09-19T14:37:56;8.15;;;1.48;;
62707;SDS011;48769;51.624;5.886;2023-09-19T14:40:21;9.70;;;1.33;;
62707;SDS011;48769;51.624;5.886;2023-09-19T14:42:47;7.75;;;1.83;;
62707;SDS011;48769;51.624;5.886;2023-09-19T14:45:13;7.32;;;1.30;;
62707;SDS011;48769;51.624;5.886;2023-09-19T14:47:42;9.23;;;1.50;;
62707;SDS011;48769;51.624;5.886;2023-09-19T14:50:08;2.88;;;1.10;;
62707;SDS011;48769;51.624;5.886;2023-09-19T14:52:34;8.65;;;1.48;;
62707;SDS011;48769;51.624;5.886;2023-09-19T14:55:01;7.82;;;1.20;;
62707;SDS011;48769;51.624;5.886;2023-09-19T14:57:26;9.45;;;1.70;;
62707;SDS011;48769;51.624;5.886;2023-09-19T14:59:52;8.43;;;1.17;;
62707;SDS011;48769;51.624;5.886;2023-09-19T15:02:17;4.35;;;1.20;;
62707;SDS011;48769;51.624;5.886;2023-09-19T15:04:43;6.43;;;1.35;;
62707;SDS011;48769;51.624;5.886;2023-09-19T15:07:09;6.07;;;2.10;;
62707;SDS011;48769;51.624;5.886;2023-09-19T15:09:35;8.77;;;1.33;;
62707;SDS011;48769;51.624;5.886;2023-09-19T15:12:01;5.18;;;2.00;;
62707;SDS011;48769;51.624;5.886;2023-09-19T15:14:26;5.03;;;1.02;;
62707;SDS011;48769;51.624;5.886;2023-09-19T15:16:51;6.90;;;1.60;;
62707;SDS011;48769;51.624;5.886;2023-09-19T15:19:17;5.03;;;1.73;;
62707;SDS011;48769;51.624;5.886;2023-09-19T15:21:43;6.82;;;1.45;;
62707;SDS011;48769;51.624;5.886;2023-09-19T15:24:09;4.20;;;1.27;;
62707;SDS011;48769;51.624;5.886;2023-09-19T15:26:37;2.92;;;1.00;;
62707;SDS011;48769;51.624;5.886;2023-09-19T15:29:08;4.93;;;0.88;;
62707;SDS011;48769;51.624;5.886;2023-09-19T15:31:34;5.47;;;1.42;;
62707;SDS011;48769;51.624;5.886;2023-09-19T15:34:03;4.90;;;1.67;;
62707;SDS011;48769;51.624;5.886;2023-09-19T15:36:30;3.85;;;1.00;;
62707;SDS011;48769;51.624;5.886;2023-09-19T15:39:03;7.40;;;1.77;;